sensor_id;sensor_type;location;lat;lon;timestamp;pressure;altitude;pressure_sealevel;temperature;humidity
49529;BME280;35423;37.320;-121.762;2023-12-28T00:01:35;100181.23;;;25.06;25.53
49529;BME280;35423;37.320;-121.762;2023-12-28T00:04:00;100181.38;;;24.94;25.52
49529;BME280;35423;37.320;-121.762;2023-12-28T00:06:28;100194.18;;;24.81;25.50
49529;BME280;35423;37.320;-121.762;2023-12-28T00:08:57;100194.65;;;24.89;25.67
49529;BME280;35423;37.320;-121.762;2023-12-28T00:11:21;100195.52;;;24.67;25.84
49529;BME280;35423;37.320;-121.762;2023-12-28T00:13:47;100191.60;;;24.54;26.00
49529;BME280;35423;37.320;-121.762;2023-12-28T00:16:15;100197.21;;;24.09;26.24
49529;BME280;35423;37.320;-121.762;2023-12-28T00:18:43;100194.55;;;24.44;26.34
49529;BME280;35423;37.320;-121.762;2023-12-28T00:21:08;100194.94;;;24.35;26.44
49529;BME280;35423;37.320;-121.762;2023-12-28T00:23:36;100201.60;;;24.24;26.54
49529;BME280;35423;37.320;-121.762;2023-12-28T00:26:08;100203.40;;;24.12;26.69
49529;BME280;35423;37.320;-121.762;2023-12-28T00:28:35;100207.06;;;24.10;26.74
49529;BME280;35423;37.320;-121.762;2023-12-28T00:31:10;100216.74;;;24.04;26.73
49529;BME280;35423;37.320;-121.762;2023-12-28T00:33:35;100217.78;;;23.87;26.86
49529;BME280;35423;37.320;-121.762;2023-12-28T00:36:02;100220.19;;;23.73;27.01
49529;BME280;35423;37.320;-121.762;2023-12-28T00:38:31;100221.75;;;23.68;27.09
49529;BME280;35423;37.320;-121.762;2023-12-28T00:40:56;100221.76;;;23.84;27.17
49529;BME280;35423;37.320;-121.762;2023-12-28T00:43:23;100210.50;;;23.56;27.19
49529;BME280;35423;37.320;-121.762;2023-12-28T00:45:47;100204.68;;;23.55;27.18
49529;BME280;35423;37.320;-121.762;2023-12-28T00:48:13;100198.31;;;23.50;27.20
49529;BME280;35423;37.320;-121.762;2023-12-28T00:50:38;100197.98;;;23.67;27.18
49529;BME280;35423;37.320;-121.762;2023-12-28T00:53:04;100208.35;;;23.22;27.12
49529;BME280;35423;37.320;-121.762;2023-12-28T00:55:31;100221.36;;;23.36;27.22
49529;BME280;35423;37.320;-121.762;2023-12-28T00:57:56;100217.60;;;23.32;27.31
49529;BME280;35423;37.320;-121.762;2023-12-28T01:00:24;100215.12;;;23.34;27.34
49529;BME280;35423;37.320;-121.762;2023-12-28T01:02:52;100233.49;;;23.82;27.38
49529;BME280;35423;37.320;-121.762;2023-12-28T01:05:17;100227.73;;;23.39;27.39
49529;BME280;35423;37.320;-121.762;2023-12-28T01:07:42;100232.86;;;23.31;27.54
49529;BME280;35423;37.320;-121.762;2023-12-28T01:10:08;100237.19;;;23.52;27.60
49529;BME280;35423;37.320;-121.762;2023-12-28T01:12:33;100239.38;;;23.44;27.77
49529;BME280;35423;37.320;-121.762;2023-12-28T01:14:58;100241.93;;;23.44;27.87
49529;BME280;35423;37.320;-121.762;2023-12-28T01:17:24;100239.26;;;23.35;28.04
49529;BME280;35423;37.320;-121.762;2023-12-28T01:19:51;100247.66;;;23.06;28.29
49529;BME280;35423;37.320;-121.762;2023-12-28T01:22:17;100241.09;;;23.06;29.12
49529;BME280;35423;37.320;-121.762;2023-12-28T01:24:47;100235.97;;;23.07;29.64
49529;BME280;35423;37.320;-121.762;2023-12-28T01:27:15;100243.17;;;22.26;30.44
49529;BME280;35423;37.320;-121.762;2023-12-28T01:29:38;100254.84;;;22.32;30.86
49529;BME280;35423;37.320;-121.762;2023-12-28T01:32:11;100254.93;;;22.31;30.91
49529;BME280;35423;37.320;-121.762;2023-12-28T01:34:34;100256.73;;;22.62;30.95
49529;BME280;35423;37.320;-121.762;2023-12-28T01:36:59;100255.81;;;22.61;31.29
49529;BME280;35423;37.320;-121.762;2023-12-28T01:39:24;100255.29;;;22.49;31.53
49529;BME280;35423;37.320;-121.762;2023-12-28T01:41:50;100255.53;;;22.15;31.62
49529;BME280;35423;37.320;-121.762;2023-12-28T01:44:16;100258.78;;;22.07;31.79
49529;BME280;35423;37.320;-121.762;2023-12-28T01:46:41;100256.28;;;22.26;32.17
49529;BME280;35423;37.320;-121.762;2023-12-28T01:49:07;100262.22;;;21.96;32.28
49529;BME280;35423;37.320;-121.762;2023-12-28T01:51:33;100259.73;;;22.28;32.35
49529;BME280;35423;37.320;-121.762;2023-12-28T01:54:01;100254.71;;;22.20;32.75
49529;BME280;35423;37.320;-121.762;2023-12-28T01:56:25;100259.69;;;22.18;32.82
49529;BME280;35423;37.320;-121.762;2023-12-28T01:58:52;100259.96;;;22.28;33.10
49529;BME280;35423;37.320;-121.762;2023-12-28T02:01:18;100258.94;;;22.23;33.28
49529;BME280;35423;37.320;-121.762;2023-12-28T02:03:42;100265.51;;;22.10;33.31
49529;BME280;35423;37.320;-121.762;2023-12-28T02:06:10;100266.34;;;22.11;33.37
49529;BME280;35423;37.320;-121.762;2023-12-28T02:08:37;100268.15;;;22.13;33.44
49529;BME280;35423;37.320;-121.762;2023-12-28T02:11:04;100269.98;;;22.17;33.42
49529;BME280;35423;37.320;-121.762;2023-12-28T02:13:27;100282.87;;;22.19;33.32
49529;BME280;35423;37.320;-121.762;2023-12-28T02:15:59;100279.53;;;22.08;33.47
49529;BME280;35423;37.320;-121.762;2023-12-28T02:18:26;100283.62;;;22.03;33.56
49529;BME280;35423;37.320;-121.762;2023-12-28T02:20:49;100294.34;;;22.00;33.74
49529;BME280;35423;37.320;-121.762;2023-12-28T02:23:13;100293.77;;;22.01;33.74
49529;BME280;35423;37.320;-121.762;2023-12-28T02:25:41;100299.96;;;22.03;33.71
49529;BME280;35423;37.320;-121.762;2023-12-28T02:28:07;100303.24;;;22.32;33.77
49529;BME280;35423;37.320;-121.762;2023-12-28T02:30:38;100302.80;;;22.15;33.71
49529;BME280;35423;37.320;-121.762;2023-12-28T02:33:24;100309.06;;;22.20;33.69
49529;BME280;35423;37.320;-121.762;2023-12-28T02:35:36;100306.27;;;22.41;33.69
49529;BME280;35423;37.320;-121.762;2023-12-28T02:38:04;100313.95;;;22.53;33.73
49529;BME280;35423;37.320;-121.762;2023-12-28T02:40:25;100315.80;;;22.16;33.91
49529;BME280;35423;37.320;-121.762;2023-12-28T02:42:49;100322.56;;;22.16;34.06
49529;BME280;35423;37.320;-121.762;2023-12-28T02:45:18;100323.38;;;22.23;34.08
49529;BME280;35423;37.320;-121.762;2023-12-28T02:47:44;100323.84;;;22.02;34.12
49529;BME280;35423;37.320;-121.762;2023-12-28T02:50:09;100333.83;;;22.02;34.17
49529;BME280;35423;37.320;-121.762;2023-12-28T02:52:39;100328.10;;;22.04;34.15
49529;BME280;35423;37.320;-121.762;2023-12-28T02:55:08;100329.45;;;22.07;34.16
49529;BME280;35423;37.320;-121.762;2023-12-28T02:57:34;100320.76;;;22.04;34.20
49529;BME280;35423;37.320;-121.762;2023-12-28T03:00:02;100324.59;;;22.25;34.21
49529;BME280;35423;37.320;-121.762;2023-12-28T03:02:28;100327.69;;;22.08;34.19
49529;BME280;35423;37.320;-121.762;2023-12-28T03:04:54;100324.59;;;22.52;34.24
49529;BME280;35423;37.320;-121.762;2023-12-28T03:07:19;100329.70;;;22.10;34.24
49529;BME280;35423;37.320;-121.762;2023-12-28T03:09:46;100329.00;;;22.12;34.27
49529;BME280;35423;37.320;-121.762;2023-12-28T03:12:12;100330.05;;;21.89;34.30
49529;BME280;35423;37.320;-121.762;2023-12-28T03:14:37;100329.81;;;22.16;34.31
49529;BME280;35423;37.320;-121.762;2023-12-28T03:17:05;100335.92;;;22.14;34.26
49529;BME280;35423;37.320;-121.762;2023-12-28T03:19:30;100330.72;;;21.77;34.47
49529;BME280;35423;37.320;-121.762;2023-12-28T03:21:58;100333.11;;;22.14;34.58
49529;BME280;35423;37.320;-121.762;2023-12-28T03:24:24;100337.41;;;22.17;34.64
49529;BME280;35423;37.320;-121.762;2023-12-28T03:26:54;100331.57;;;21.91;34.74
49529;BME280;35423;37.320;-121.762;2023-12-28T03:29:20;100336.46;;;22.12;34.41
49529;BME280;35423;37.320;-121.762;2023-12-28T03:31:46;100335.31;;;22.27;34.21
49529;BME280;35423;37.320;-121.762;2023-12-28T03:34:14;100336.39;;;22.07;34.14
49529;BME280;35423;37.320;-121.762;2023-12-28T03:36:40;100338.25;;;22.23;34.30
49529;BME280;35423;37.320;-121.762;2023-12-28T03:39:06;100337.11;;;22.15;34.40
49529;BME280;35423;37.320;-121.762;2023-12-28T03:41:31;100340.81;;;22.11;34.51
49529;BME280;35423;37.320;-121.762;2023-12-28T03:43:57;100338.41;;;22.28;34.61
49529;BME280;35423;37.320;-121.762;2023-12-28T03:46:23;100338.82;;;22.01;34.75
49529;BME280;35423;37.320;-121.762;2023-12-28T03:48:56;100341.25;;;21.98;34.81
49529;BME280;35423;37.320;-121.762;2023-12-28T03:51:19;100342.75;;;22.01;34.84
49529;BME280;35423;37.320;-121.762;2023-12-28T03:53:51;100347.71;;;22.01;34.90
49529;BME280;35423;37.320;-121.762;2023-12-28T03:56:20;100346.71;;;22.04;34.83
49529;BME280;35423;37.320;-121.762;2023-12-28T03:58:40;100348.11;;;22.07;34.76
49529;BME280;35423;37.320;-121.762;2023-12-28T04:01:13;100343.17;;;22.07;34.72
49529;BME280;35423;37.320;-121.762;2023-12-28T04:03:39;100344.97;;;21.96;34.80
49529;BME280;35423;37.320;-121.762;2023-12-28T04:06:06;100339.08;;;21.91;34.82
49529;BME280;35423;37.320;-121.762;2023-12-28T04:08:31;100348.98;;;22.10;34.87
49529;BME280;35423;37.320;-121.762;2023-12-28T04:11:12;100359.51;;;21.88;34.86
49529;BME280;35423;37.320;-121.762;2023-12-28T04:16:07;100363.95;;;22.09;34.91
49529;BME280;35423;37.320;-121.762;2023-12-28T04:18:29;100361.51;;;21.83;34.77
49529;BME280;35423;37.320;-121.762;2023-12-28T04:21:00;100371.26;;;22.17;34.81
49529;BME280;35423;37.320;-121.762;2023-12-28T04:23:28;100377.87;;;21.91;34.84
49529;BME280;35423;37.320;-121.762;2023-12-28T04:25:53;100390.40;;;21.76;34.79
49529;BME280;35423;37.320;-121.762;2023-12-28T04:28:20;100385.40;;;22.25;34.67
49529;BME280;35423;37.320;-121.762;2023-12-28T04:30:49;100394.16;;;22.29;34.62
49529;BME280;35423;37.320;-121.762;2023-12-28T04:33:16;100397.68;;;22.08;34.56
49529;BME280;35423;37.320;-121.762;2023-12-28T04:35:39;100391.61;;;22.00;34.52
49529;BME280;35423;37.320;-121.762;2023-12-28T04:38:08;100391.13;;;22.22;34.55
49529;BME280;35423;37.320;-121.762;2023-12-28T04:40:31;100391.17;;;21.92;34.58
49529;BME280;35423;37.320;-121.762;2023-12-28T04:42:58;100392.08;;;21.93;34.59
49529;BME280;35423;37.320;-121.762;2023-12-28T04:45:24;100394.10;;;22.15;34.48
49529;BME280;35423;37.320;-121.762;2023-12-28T04:47:51;100389.82;;;21.83;34.39
49529;BME280;35423;37.320;-121.762;2023-12-28T04:50:17;100391.73;;;21.43;34.61
49529;BME280;35423;37.320;-121.762;2023-12-28T04:52:43;100395.09;;;21.64;34.70
49529;BME280;35423;37.320;-121.762;2023-12-28T04:55:11;100389.46;;;21.41;34.69
49529;BME280;35423;37.320;-121.762;2023-12-28T04:57:40;100396.31;;;21.63;34.66
49529;BME280;35423;37.320;-121.762;2023-12-28T05:00:09;100400.40;;;21.78;34.73
49529;BME280;35423;37.320;-121.762;2023-12-28T05:02:34;100402.41;;;21.58;35.07
49529;BME280;35423;37.320;-121.762;2023-12-28T05:05:00;100405.97;;;21.46;35.35
49529;BME280;35423;37.320;-121.762;2023-12-28T05:07:33;100404.48;;;21.20;35.59
49529;BME280;35423;37.320;-121.762;2023-12-28T05:09:59;100398.50;;;21.39;35.75
49529;BME280;35423;37.320;-121.762;2023-12-28T05:12:25;100411.62;;;21.38;35.93
49529;BME280;35423;37.320;-121.762;2023-12-28T05:14:51;100407.73;;;21.13;36.01
49529;BME280;35423;37.320;-121.762;2023-12-28T05:17:17;100409.84;;;21.33;36.22
49529;BME280;35423;37.320;-121.762;2023-12-28T05:19:44;100404.32;;;21.34;36.33
49529;BME280;35423;37.320;-121.762;2023-12-28T05:22:11;100398.92;;;21.36;36.38
49529;BME280;35423;37.320;-121.762;2023-12-28T05:24:37;100400.81;;;21.34;36.35
49529;BME280;35423;37.320;-121.762;2023-12-28T05:27:06;100402.62;;;21.14;36.47
49529;BME280;35423;37.320;-121.762;2023-12-28T05:29:33;100399.06;;;21.36;36.52
49529;BME280;35423;37.320;-121.762;2023-12-28T05:32:00;100401.68;;;21.58;36.52
49529;BME280;35423;37.320;-121.762;2023-12-28T05:34:28;100399.41;;;21.26;36.63
49529;BME280;35423;37.320;-121.762;2023-12-28T05:36:54;100406.84;;;21.22;36.69
49529;BME280;35423;37.320;-121.762;2023-12-28T05:39:20;100407.22;;;21.14;36.79
49529;BME280;35423;37.320;-121.762;2023-12-28T05:41:46;100414.62;;;21.06;36.90
49529;BME280;35423;37.320;-121.762;2023-12-28T05:44:12;100419.95;;;21.05;36.94
49529;BME280;35423;37.320;-121.762;2023-12-28T05:46:37;100427.75;;;21.29;37.04
49529;BME280;35423;37.320;-121.762;2023-12-28T05:49:06;100428.19;;;20.61;37.08
49529;BME280;35423;37.320;-121.762;2023-12-28T05:51:38;100427.19;;;21.08;37.05
49529;BME280;35423;37.320;-121.762;2023-12-28T05:54:00;100436.02;;;21.37;37.06
49529;BME280;35423;37.320;-121.762;2023-12-28T05:56:25;100439.20;;;21.11;37.08
49529;BME280;35423;37.320;-121.762;2023-12-28T05:58:50;100444.91;;;21.06;37.12
49529;BME280;35423;37.320;-121.762;2023-12-28T06:01:16;100441.64;;;20.88;37.04
49529;BME280;35423;37.320;-121.762;2023-12-28T06:03:42;100439.98;;;21.39;37.00
49529;BME280;35423;37.320;-121.762;2023-12-28T06:06:08;100444.44;;;21.20;36.95
49529;BME280;35423;37.320;-121.762;2023-12-28T06:08:33;100441.41;;;21.47;36.83
49529;BME280;35423;37.320;-121.762;2023-12-28T06:10:59;100444.82;;;21.12;36.93
49529;BME280;35423;37.320;-121.762;2023-12-28T06:13:24;100447.95;;;21.10;36.99
49529;BME280;35423;37.320;-121.762;2023-12-28T06:15:52;100452.03;;;21.07;37.00
49529;BME280;35423;37.320;-121.762;2023-12-28T06:18:17;100451.16;;;21.03;37.03
49529;BME280;35423;37.320;-121.762;2023-12-28T06:20:43;100452.45;;;21.00;37.10
49529;BME280;35423;37.320;-121.762;2023-12-28T06:23:10;100449.01;;;20.56;37.17
49529;BME280;35423;37.320;-121.762;2023-12-28T06:25:35;100452.22;;;21.33;37.11
49529;BME280;35423;37.320;-121.762;2023-12-28T06:28:01;100451.43;;;21.08;37.02
49529;BME280;35423;37.320;-121.762;2023-12-28T06:30:29;100451.67;;;20.96;36.87
49529;BME280;35423;37.320;-121.762;2023-12-28T06:32:55;100454.79;;;21.10;36.67
49529;BME280;35423;37.320;-121.762;2023-12-28T06:35:22;100452.33;;;21.37;36.59
49529;BME280;35423;37.320;-121.762;2023-12-28T06:37:50;100449.90;;;20.89;36.61
49529;BME280;35423;37.320;-121.762;2023-12-28T06:40:16;100450.69;;;21.25;36.60
49529;BME280;35423;37.320;-121.762;2023-12-28T06:42:41;100450.02;;;21.09;36.93
49529;BME280;35423;37.320;-121.762;2023-12-28T06:45:07;100452.50;;;20.98;37.11
49529;BME280;35423;37.320;-121.762;2023-12-28T06:47:32;100448.34;;;20.89;37.29
49529;BME280;35423;37.320;-121.762;2023-12-28T06:49:57;100456.44;;;20.85;37.41
49529;BME280;35423;37.320;-121.762;2023-12-28T06:52:25;100462.40;;;21.04;37.51
49529;BME280;35423;37.320;-121.762;2023-12-28T06:54:53;100468.42;;;21.21;37.60
49529;BME280;35423;37.320;-121.762;2023-12-28T06:57:23;100472.48;;;20.97;37.68
49529;BME280;35423;37.320;-121.762;2023-12-28T06:59:49;100470.41;;;21.14;37.74
49529;BME280;35423;37.320;-121.762;2023-12-28T07:02:15;100473.25;;;20.61;37.81
49529;BME280;35423;37.320;-121.762;2023-12-28T07:04:40;100474.19;;;20.82;37.84
49529;BME280;35423;37.320;-121.762;2023-12-28T07:07:08;100480.35;;;20.35;37.79
49529;BME280;35423;37.320;-121.762;2023-12-28T07:09:35;100484.11;;;20.58;37.80
49529;BME280;35423;37.320;-121.762;2023-12-28T07:12:06;100481.27;;;20.35;37.80
49529;BME280;35423;37.320;-121.762;2023-12-28T07:14:31;100477.39;;;20.81;37.83
49529;BME280;35423;37.320;-121.762;2023-12-28T07:16:59;100460.18;;;20.48;37.86
49529;BME280;35423;37.320;-121.762;2023-12-28T07:19:24;100450.30;;;20.47;37.80
49529;BME280;35423;37.320;-121.762;2023-12-28T07:21:50;100436.65;;;20.40;37.81
49529;BME280;35423;37.320;-121.762;2023-12-28T07:24:17;100428.22;;;20.66;37.77
49529;BME280;35423;37.320;-121.762;2023-12-28T07:26:43;100416.29;;;20.86;37.76
49529;BME280;35423;37.320;-121.762;2023-12-28T07:29:09;100407.39;;;20.11;37.78
49529;BME280;35423;37.320;-121.762;2023-12-28T07:31:35;100397.81;;;20.78;37.81
49529;BME280;35423;37.320;-121.762;2023-12-28T07:34:02;100390.90;;;20.72;37.86
49529;BME280;35423;37.320;-121.762;2023-12-28T07:36:31;100387.70;;;20.44;37.91
49529;BME280;35423;37.320;-121.762;2023-12-28T07:38:58;100396.94;;;20.63;37.96
49529;BME280;35423;37.320;-121.762;2023-12-28T07:41:24;100396.96;;;20.35;38.00
49529;BME280;35423;37.320;-121.762;2023-12-28T07:43:53;100399.58;;;20.52;37.98
49529;BME280;35423;37.320;-121.762;2023-12-28T07:46:21;100403.44;;;20.45;38.02
49529;BME280;35423;37.320;-121.762;2023-12-28T07:48:47;100405.48;;;20.44;38.01
49529;BME280;35423;37.320;-121.762;2023-12-28T07:51:14;100409.05;;;20.42;37.98
49529;BME280;35423;37.320;-121.762;2023-12-28T07:53:39;100405.65;;;20.36;37.98
49529;BME280;35423;37.320;-121.762;2023-12-28T07:56:06;100407.61;;;20.34;38.01
49529;BME280;35423;37.320;-121.762;2023-12-28T07:58:32;100406.82;;;20.07;38.00
49529;BME280;35423;37.320;-121.762;2023-12-28T08:01:08;100413.79;;;20.28;37.99
49529;BME280;35423;37.320;-121.762;2023-12-28T08:03:30;100415.83;;;20.25;37.96
49529;BME280;35423;37.320;-121.762;2023-12-28T08:06:00;100418.94;;;20.01;37.88
49529;BME280;35423;37.320;-121.762;2023-12-28T08:08:26;100425.11;;;20.10;37.92
49529;BME280;35423;37.320;-121.762;2023-12-28T08:10:52;100425.11;;;20.00;37.99
49529;BME280;35423;37.320;-121.762;2023-12-28T08:13:18;100436.04;;;19.97;38.03
49529;BME280;35423;37.320;-121.762;2023-12-28T08:15:43;100441.22;;;19.93;38.12
49529;BME280;35423;37.320;-121.762;2023-12-28T08:18:09;100437.25;;;19.68;38.21
49529;BME280;35423;37.320;-121.762;2023-12-28T08:20:34;100438.67;;;19.93;38.15
49529;BME280;35423;37.320;-121.762;2023-12-28T08:23:00;100442.95;;;20.21;38.12
49529;BME280;35423;37.320;-121.762;2023-12-28T08:25:26;100445.37;;;19.96;38.09
49529;BME280;35423;37.320;-121.762;2023-12-28T08:27:54;100446.96;;;19.99;38.10
49529;BME280;35423;37.320;-121.762;2023-12-28T08:30:22;100442.49;;;20.01;38.06
49529;BME280;35423;37.320;-121.762;2023-12-28T08:32:48;100440.76;;;19.99;38.04
49529;BME280;35423;37.320;-121.762;2023-12-28T08:35:14;100438.37;;;20.01;37.98
49529;BME280;35423;37.320;-121.762;2023-12-28T08:37:41;100429.06;;;19.99;37.95
49529;BME280;35423;37.320;-121.762;2023-12-28T08:40:11;100420.78;;;19.94;37.91
49529;BME280;35423;37.320;-121.762;2023-12-28T08:42:40;100411.44;;;19.94;37.85
49529;BME280;35423;37.320;-121.762;2023-12-28T08:45:07;100398.26;;;19.94;37.70
49529;BME280;35423;37.320;-121.762;2023-12-28T08:49:55;100378.90;;;19.89;37.61
49529;BME280;35423;37.320;-121.762;2023-12-28T08:52:20;100371.68;;;19.80;37.64
49529;BME280;35423;37.320;-121.762;2023-12-28T08:54:46;100362.82;;;19.72;37.60
49529;BME280;35423;37.320;-121.762;2023-12-28T08:57:11;100353.22;;;19.39;37.65
49529;BME280;35423;37.320;-121.762;2023-12-28T08:59:37;100345.09;;;19.52;37.69
49529;BME280;35423;37.320;-121.762;2023-12-28T09:02:03;100348.60;;;19.51;37.71
49529;BME280;35423;37.320;-121.762;2023-12-28T09:04:28;100340.08;;;19.54;37.69
49529;BME280;35423;37.320;-121.762;2023-12-28T09:06:54;100337.38;;;19.76;37.75
49529;BME280;35423;37.320;-121.762;2023-12-28T09:09:20;100324.23;;;20.01;38.05
49529;BME280;35423;37.320;-121.762;2023-12-28T09:11:46;100321.82;;;19.66;38.18
49529;BME280;35423;37.320;-121.762;2023-12-28T09:14:11;100325.29;;;19.81;38.11
49529;BME280;35423;37.320;-121.762;2023-12-28T09:16:38;100334.17;;;19.95;38.01
49529;BME280;35423;37.320;-121.762;2023-12-28T09:19:06;100331.95;;;20.03;37.83
49529;BME280;35423;37.320;-121.762;2023-12-28T09:21:31;100335.05;;;20.05;37.76
49529;BME280;35423;37.320;-121.762;2023-12-28T09:23:57;100336.18;;;20.11;37.76
49529;BME280;35423;37.320;-121.762;2023-12-28T09:26:25;100327.08;;;20.16;37.76
49529;BME280;35423;37.320;-121.762;2023-12-28T09:28:51;100326.84;;;20.41;37.55
49529;BME280;35423;37.320;-121.762;2023-12-28T09:31:17;100330.96;;;20.38;37.32
49529;BME280;35423;37.320;-121.762;2023-12-28T09:33:44;100328.33;;;20.78;36.99
49529;BME280;35423;37.320;-121.762;2023-12-28T09:36:11;100328.79;;;20.56;36.88
49529;BME280;35423;37.320;-121.762;2023-12-28T09:38:36;100337.93;;;20.43;37.07
49529;BME280;35423;37.320;-121.762;2023-12-28T09:41:12;100341.72;;;20.10;37.14
49529;BME280;35423;37.320;-121.762;2023-12-28T09:43:33;100344.30;;;20.58;37.13
49529;BME280;35423;37.320;-121.762;2023-12-28T09:45:56;100338.18;;;20.48;37.18
49529;BME280;35423;37.320;-121.762;2023-12-28T09:48:22;100341.55;;;20.46;37.26
49529;BME280;35423;37.320;-121.762;2023-12-28T09:50:50;100342.01;;;20.71;37.26
49529;BME280;35423;37.320;-121.762;2023-12-28T09:53:13;100344.73;;;20.20;37.35
49529;BME280;35423;37.320;-121.762;2023-12-28T09:55:39;100346.21;;;20.42;37.40
49529;BME280;35423;37.320;-121.762;2023-12-28T09:58:06;100348.48;;;20.71;37.38
49529;BME280;35423;37.320;-121.762;2023-12-28T10:00:30;100350.14;;;20.44;37.29
49529;BME280;35423;37.320;-121.762;2023-12-28T10:02:58;100351.34;;;20.38;37.17
49529;BME280;35423;37.320;-121.762;2023-12-28T10:05:23;100350.45;;;20.31;37.12
49529;BME280;35423;37.320;-121.762;2023-12-28T10:07:49;100345.80;;;20.32;37.14
49529;BME280;35423;37.320;-121.762;2023-12-28T10:10:13;100345.35;;;20.33;37.28
49529;BME280;35423;37.320;-121.762;2023-12-28T10:12:39;100352.90;;;20.38;37.22
49529;BME280;35423;37.320;-121.762;2023-12-28T10:15:07;100355.85;;;20.35;37.04
49529;BME280;35423;37.320;-121.762;2023-12-28T10:17:33;100353.18;;;20.25;36.85
49529;BME280;35423;37.320;-121.762;2023-12-28T10:19:59;100352.23;;;19.90;36.84
49529;BME280;35423;37.320;-121.762;2023-12-28T10:22:25;100350.03;;;20.01;36.83
49529;BME280;35423;37.320;-121.762;2023-12-28T10:24:51;100348.26;;;19.85;36.92
49529;BME280;35423;37.320;-121.762;2023-12-28T10:27:17;100348.79;;;19.75;37.02
49529;BME280;35423;37.320;-121.762;2023-12-28T10:29:43;100350.21;;;19.68;37.10
49529;BME280;35423;37.320;-121.762;2023-12-28T10:32:08;100358.69;;;19.57;37.18
49529;BME280;35423;37.320;-121.762;2023-12-28T10:34:33;100366.46;;;19.47;37.21
49529;BME280;35423;37.320;-121.762;2023-12-28T10:37:00;100368.95;;;19.40;37.26
49529;BME280;35423;37.320;-121.762;2023-12-28T10:39:27;100371.21;;;19.33;37.35
49529;BME280;35423;37.320;-121.762;2023-12-28T10:41:54;100380.50;;;19.57;37.40
49529;BME280;35423;37.320;-121.762;2023-12-28T10:44:21;100383.24;;;19.26;37.45
49529;BME280;35423;37.320;-121.762;2023-12-28T10:46:50;100387.74;;;19.68;37.49
49529;BME280;35423;37.320;-121.762;2023-12-28T10:49:17;100387.41;;;19.15;37.49
49529;BME280;35423;37.320;-121.762;2023-12-28T10:51:41;100393.60;;;19.61;37.51
49529;BME280;35423;37.320;-121.762;2023-12-28T10:54:18;100393.01;;;19.06;37.52
49529;BME280;35423;37.320;-121.762;2023-12-28T10:56:36;100389.88;;;19.56;36.86
49529;BME280;35423;37.320;-121.762;2023-12-28T10:59:05;100385.03;;;19.70;36.95
49529;BME280;35423;37.320;-121.762;2023-12-28T11:01:28;100377.77;;;19.25;37.21
49529;BME280;35423;37.320;-121.762;2023-12-28T11:04:00;100373.67;;;19.45;37.65
49529;BME280;35423;37.320;-121.762;2023-12-28T11:06:20;100372.09;;;19.24;38.01
49529;BME280;35423;37.320;-121.762;2023-12-28T11:08:52;100370.73;;;19.62;38.17
49529;BME280;35423;37.320;-121.762;2023-12-28T11:11:12;100373.55;;;19.49;38.01
49529;BME280;35423;37.320;-121.762;2023-12-28T11:13:40;100371.68;;;19.54;37.83
49529;BME280;35423;37.320;-121.762;2023-12-28T11:16:09;100371.41;;;19.52;37.79
49529;BME280;35423;37.320;-121.762;2023-12-28T11:18:35;100371.41;;;19.81;37.75
49529;BME280;35423;37.320;-121.762;2023-12-28T11:21:02;100371.10;;;19.84;37.83
49529;BME280;35423;37.320;-121.762;2023-12-28T11:23:32;100371.13;;;19.59;37.97
49529;BME280;35423;37.320;-121.762;2023-12-28T11:25:59;100368.33;;;20.19;37.99
49529;BME280;35423;37.320;-121.762;2023-12-28T11:28:25;100361.55;;;19.84;38.01
49529;BME280;35423;37.320;-121.762;2023-12-28T11:30:51;100361.19;;;19.99;38.15
49529;BME280;35423;37.320;-121.762;2023-12-28T11:33:18;100364.16;;;20.16;38.08
49529;BME280;35423;37.320;-121.762;2023-12-28T11:35:48;100368.14;;;20.77;37.98
49529;BME280;35423;37.320;-121.762;2023-12-28T11:38:11;100366.45;;;20.40;37.87
49529;BME280;35423;37.320;-121.762;2023-12-28T11:40:41;100366.48;;;20.53;37.71
49529;BME280;35423;37.320;-121.762;2023-12-28T11:43:03;100372.32;;;20.64;37.59
49529;BME280;35423;37.320;-121.762;2023-12-28T11:45:27;100377.88;;;20.69;37.53
49529;BME280;35423;37.320;-121.762;2023-12-28T11:48:01;100379.77;;;20.74;37.44
49529;BME280;35423;37.320;-121.762;2023-12-28T11:50:21;100381.90;;;20.51;37.38
49529;BME280;35423;37.320;-121.762;2023-12-28T11:52:50;100384.28;;;20.75;37.35
49529;BME280;35423;37.320;-121.762;2023-12-28T11:55:11;100384.37;;;20.79;37.30
49529;BME280;35423;37.320;-121.762;2023-12-28T11:57:38;100388.01;;;20.81;37.23
49529;BME280;35423;37.320;-121.762;2023-12-28T12:00:10;100389.03;;;20.75;37.21
49529;BME280;35423;37.320;-121.762;2023-12-28T12:02:35;100390.90;;;20.48;37.26
49529;BME280;35423;37.320;-121.762;2023-12-28T12:05:02;100396.30;;;20.66;37.29
49529;BME280;35423;37.320;-121.762;2023-12-28T12:07:30;100398.09;;;20.65;37.36
49529;BME280;35423;37.320;-121.762;2023-12-28T12:09:57;100398.47;;;20.63;37.38
49529;BME280;35423;37.320;-121.762;2023-12-28T12:12:24;100396.46;;;20.61;37.44
49529;BME280;35423;37.320;-121.762;2023-12-28T12:14:50;100394.59;;;20.57;37.56
49529;BME280;35423;37.320;-121.762;2023-12-28T12:17:15;100389.76;;;20.56;37.60
49529;BME280;35423;37.320;-121.762;2023-12-28T12:19:42;100386.80;;;20.52;37.66
49529;BME280;35423;37.320;-121.762;2023-12-28T12:22:09;100384.19;;;20.02;37.73